createdAt,value
2023-03-23T15:59:45.696Z,95970.06
2023-03-23T16:02:22.287Z,95963.75
2023-03-23T16:04:50.892Z,95965.75
2023-03-23T16:07:23.313Z,95970.56
2023-03-23T16:09:52.569Z,95972.06
2023-03-23T16:12:20.669Z,95965.06
2023-03-23T16:14:48.593Z,95963.56
2023-03-23T16:17:21.771Z,95967.59
2023-03-23T16:19:49.997Z,95961.91
2023-03-23T16:22:18.802Z,95961.28
2023-03-23T16:24:46.810Z,95977.25
2023-03-23T16:27:16.179Z,95976.88
2023-03-23T16:30:00.349Z,95980.72
2023-03-23T16:32:31.855Z,95978.06
2023-03-23T16:34:59.748Z,95972.25
2023-03-23T16:37:33.202Z,95978.56
2023-03-23T16:40:01.416Z,95975.56
2023-03-23T16:42:50.611Z,95982.06
2023-03-23T16:45:19.419Z,95973.59
2023-03-23T16:47:47.577Z,95980.72
2023-03-23T16:50:17.886Z,95980.38
2023-03-23T16:52:49.579Z,95986.72
2023-03-23T16:55:18.470Z,95979.88
2023-03-23T16:57:46.465Z,95983.72
2023-03-23T17:00:20.243Z,95974.41
2023-03-23T17:02:51.834Z,95977.06
2023-03-23T17:05:31.214Z,95978.34
2023-03-23T17:08:14.002Z,95984.66
2023-03-23T17:10:43.709Z,95976.16
2023-03-23T17:13:12.264Z,95966.69
2023-03-23T17:15:46.877Z,95959.88
2023-03-23T17:18:16.662Z,95960.22
2023-03-23T17:20:50.437Z,95970.31
2023-03-23T17:23:18.343Z,95968.97
2023-03-23T17:25:51.137Z,95975.31
2023-03-23T17:28:33.404Z,95963.16
2023-03-23T17:31:09.219Z,95967.28
2023-03-23T17:33:37.493Z,95971.63
2023-03-23T17:36:05.820Z,95971.13
2023-03-23T17:38:36.908Z,95966.28
2023-03-23T17:41:07.910Z,95965.31
2023-03-23T17:43:36.350Z,95969.28
2023-03-23T17:46:04.510Z,95958.78
2023-03-23T17:48:35.256Z,95960.81
2023-03-23T17:51:07.570Z,95966.13
2023-03-23T17:53:40.906Z,95954.97
2023-03-23T17:56:27.643Z,95959.94
2023-03-23T17:58:55.992Z,95968.06
2023-03-23T18:01:24.041Z,95960.56
2023-03-23T18:03:53.879Z,95964.06
2023-03-23T18:06:24.924Z,95965.88
2023-03-23T18:08:55.760Z,95971.38
2023-03-23T18:11:24.151Z,95968.03
2023-03-23T18:13:52.222Z,95965.53
2023-03-23T18:16:21.883Z,95977.19
2023-03-23T18:18:50.020Z,95978.63
2023-03-23T18:21:19.227Z,95978.47
2023-03-23T18:23:58.312Z,95980.47
2023-03-23T18:26:27.486Z,95974.31
2023-03-23T18:28:57.637Z,95971.00
2023-03-23T18:31:28.887Z,95968.66
2023-03-23T18:33:57.263Z,95968.13
2023-03-23T18:36:29.010Z,95966.47
2023-03-23T18:38:59.140Z,95978.75
2023-03-23T18:41:48.923Z,95973.91
2023-03-23T18:44:21.375Z,95971.41
2023-03-23T18:46:49.458Z,95980.72
2023-03-23T18:49:17.468Z,95976.56
2023-03-23T18:51:47.216Z,95981.19
2023-03-23T18:54:15.096Z,95980.34
2023-03-23T18:56:49.150Z,95976.16
2023-03-23T18:59:17.181Z,95985.28
2023-03-23T19:01:45.326Z,95984.59
2023-03-23T19:04:14.607Z,95991.59
2023-03-23T19:06:59.749Z,95992.91
2023-03-23T19:09:27.726Z,95991.25
2023-03-23T19:11:59.598Z,95993.22
2023-03-23T19:14:31.240Z,95993.53
2023-03-23T19:17:02.640Z,96002.47
2023-03-23T19:22:03.331Z,95990.22
2023-03-23T19:24:31.507Z,95996.81
2023-03-23T19:27:00.656Z,96001.28
2023-03-23T19:29:29.483Z,95994.16
2023-03-23T19:32:09.412Z,95984.13
2023-03-23T19:34:39.526Z,95995.75
2023-03-23T19:37:11.266Z,95995.75
2023-03-23T19:39:43.081Z,95997.03
2023-03-23T19:42:23.881Z,95989.22
2023-03-23T19:44:51.868Z,96000.31
2023-03-23T19:47:19.779Z,95993.34
2023-03-23T19:49:48.308Z,95991.13
2023-03-23T19:52:18.802Z,95987.13
2023-03-23T19:54:46.938Z,95983.63
2023-03-23T19:57:15.475Z,95983.81
2023-03-23T19:59:44.289Z,95983.13
2023-03-23T20:02:12.654Z,95977.97
2023-03-23T20:04:41.391Z,95978.28
2023-03-23T20:07:09.988Z,95978.28
2023-03-23T20:09:39.640Z,95975.63
2023-03-23T20:12:09.660Z,95979.25
2023-03-23T20:14:38.210Z,95968.81
2023-03-23T20:17:09.832Z,95969.97
2023-03-23T20:19:38.460Z,95971.06
2023-03-23T20:22:06.715Z,95963.28
2023-03-23T20:24:34.650Z,95964.56
2023-03-23T20:27:04.107Z,95959.28
2023-03-23T20:29:33.472Z,95948.66
2023-03-23T20:32:01.698Z,95954.97
2023-03-23T20:34:32.251Z,95958.44
2023-03-23T20:37:02.628Z,95953.28
2023-03-23T20:39:32.847Z,95953.28
2023-03-23T20:42:05.826Z,95946.31
2023-03-23T20:44:35.089Z,95946.31
2023-03-23T20:47:04.363Z,95949.94
2023-03-23T20:49:33.267Z,95942.00
2023-03-23T20:52:01.203Z,95951.44
2023-03-23T20:54:29.910Z,95946.31
2023-03-23T20:56:58.619Z,95944.63
2023-03-23T20:59:28.643Z,95947.28
2023-03-23T21:01:56.981Z,95947.47
2023-03-23T21:04:27.402Z,95946.47
2023-03-23T21:07:02.250Z,95944.13
2023-03-23T21:09:30.859Z,95947.59
2023-03-23T21:12:00.766Z,95939.97
2023-03-23T21:14:44.899Z,95945.56
2023-03-23T21:17:21.626Z,95942.22
2023-03-23T21:19:49.982Z,95937.22
2023-03-23T21:22:19.074Z,95936.03
2023-03-23T21:24:50.374Z,95930.38
2023-03-23T21:27:18.963Z,95930.66
2023-03-23T21:29:48.840Z,95931.78
2023-03-23T21:32:16.962Z,95920.69
2023-03-23T21:34:47.452Z,95918.16
2023-03-23T21:37:16.147Z,95913.19
2023-03-23T21:39:56.547Z,95902.19
2023-03-23T21:42:30.054Z,95898.19
2023-03-23T21:45:02.735Z,95898.63
2023-03-23T21:47:31.798Z,95891.66
2023-03-23T21:50:00.313Z,95895.44
2023-03-23T21:52:28.357Z,95885.16
2023-03-23T21:54:58.834Z,95887.25
2023-03-23T21:57:26.765Z,95881.31
2023-03-23T21:59:55.795Z,95875.31
2023-03-23T22:02:40.015Z,95870.47
2023-03-23T22:05:26.773Z,95861.84
2023-03-23T22:07:57.073Z,95861.47
2023-03-23T22:10:25.327Z,95863.75
2023-03-23T22:12:55.617Z,95848.28
2023-03-23T22:15:28.013Z,95844.78
2023-03-23T22:17:57.976Z,95840.50
2023-03-23T22:20:26.838Z,95837.25
2023-03-23T22:22:55.128Z,95825.84
2023-03-23T22:25:23.111Z,95820.41
2023-03-23T22:27:52.456Z,95809.81
2023-03-23T22:30:21.284Z,95815.94
2023-03-23T22:32:49.331Z,95807.16
2023-03-23T22:35:18.807Z,95805.66
2023-03-23T22:37:47.117Z,95808.28
2023-03-23T22:40:15.198Z,95805.66
2023-03-23T22:42:43.107Z,95807.31
2023-03-23T22:45:11.151Z,95797.97
2023-03-23T22:47:39.612Z,95793.53
2023-03-23T22:50:13.430Z,95795.19
2023-03-23T22:52:43.309Z,95787.56
2023-03-23T22:55:11.247Z,95795.19
2023-03-23T22:57:39.207Z,95793.81
2023-03-23T23:00:14.446Z,95800.94
2023-03-23T23:03:01.214Z,95795.06
2023-03-23T23:05:41.984Z,95794.06
2023-03-23T23:08:14.668Z,95794.47
2023-03-23T23:10:47.907Z,95793.63
2023-03-23T23:13:16.845Z,95799.22
2023-03-23T23:15:50.016Z,95785.13
2023-03-23T23:18:18.111Z,95801.03
2023-03-23T23:20:49.450Z,95807.97
2023-03-23T23:23:19.247Z,95820.94
2023-03-23T23:25:48.113Z,95816.34
2023-03-23T23:28:17.013Z,95812.03
2023-03-23T23:30:46.382Z,95824.28
2023-03-23T23:33:15.626Z,95847.84
2023-03-23T23:35:44.841Z,95852.84
2023-03-23T23:38:13.142Z,95837.25
2023-03-23T23:40:43.776Z,95812.84
2023-03-23T23:43:12.851Z,95817.66
2023-03-23T23:45:41.155Z,95812.59
2023-03-23T23:48:09.965Z,95796.03
2023-03-23T23:50:47.423Z,95788.06
2023-03-23T23:53:27.850Z,95794.50
2023-03-23T23:56:01.547Z,95793.81
2023-03-23T23:58:30.006Z,95793.81
